Terminal Aerodrome Forecast
Issued by NWS Norman, OK

Home | Current Version | Previous Version | Text Only | Print | Product List | Glossary On
Versions: 1 2 3 4 5 6 7 8 9 10 11 12
000
FTUS44 KOUN 161139
TAFSPS
TAF
KSPS 161139Z 1612/1712 19012KT P6SM SCT250
     FM161600 20016G24KT P6SM BKN250
     FM162300 18014KT P6SM SCT050 BKN100
      TEMPO 1701/1705 5SM -RA BKN025
     FM170500 16012KT 5SM BR OVC015=

USA.gov is the U.S. government's official web portal to all federal, state and local government web resources and services.